sensor_id;sensor_type;location;lat;lon;timestamp;P1;durP1;ratioP1;P2;durP2;ratioP2
72611;SDS011;60655;52.182;4.474;2023-06-14T00:01:21;9.98;;;3.58;;
72611;SDS011;60655;52.182;4.474;2023-06-14T00:03:22;9.02;;;3.35;;
72611;SDS011;60655;52.182;4.474;2023-06-14T00:05:25;7.20;;;3.35;;
72611;SDS011;60655;52.182;4.474;2023-06-14T00:07:33;10.52;;;3.38;;
72611;SDS011;60655;52.182;4.474;2023-06-14T00:09:36;9.57;;;3.33;;
72611;SDS011;60655;52.182;4.474;2023-06-14T00:11:37;9.30;;;3.28;;
72611;SDS011;60655;52.182;4.474;2023-06-14T00:13:38;9.57;;;3.35;;
72611;SDS011;60655;52.182;4.474;2023-06-14T00:15:39;7.95;;;3.45;;
72611;SDS011;60655;52.182;4.474;2023-06-14T00:17:40;7.80;;;3.63;;
72611;SDS011;60655;52.182;4.474;2023-06-14T00:19:41;8.48;;;3.42;;
72611;SDS011;60655;52.182;4.474;2023-06-14T00:21:42;10.43;;;3.28;;
72611;SDS011;60655;52.182;4.474;2023-06-14T00:23:43;8.23;;;3.30;;
72611;SDS011;60655;52.182;4.474;2023-06-14T00:25:45;7.53;;;3.63;;
72611;SDS011;60655;52.182;4.474;2023-06-14T00:27:46;9.18;;;3.50;;
72611;SDS011;60655;52.182;4.474;2023-06-14T00:29:47;7.30;;;3.35;;
72611;SDS011;60655;52.182;4.474;2023-06-14T00:31:47;8.10;;;3.30;;
72611;SDS011;60655;52.182;4.474;2023-06-14T00:33:48;12.18;;;3.30;;
72611;SDS011;60655;52.182;4.474;2023-06-14T00:35:49;7.68;;;3.47;;
72611;SDS011;60655;52.182;4.474;2023-06-14T00:37:50;11.43;;;3.05;;
72611;SDS011;60655;52.182;4.474;2023-06-14T00:39:51;13.23;;;3.50;;
72611;SDS011;60655;52.182;4.474;2023-06-14T00:41:52;11.80;;;3.60;;
72611;SDS011;60655;52.182;4.474;2023-06-14T00:43:53;9.15;;;3.25;;
72611;SDS011;60655;52.182;4.474;2023-06-14T00:45:58;11.52;;;3.42;;
72611;SDS011;60655;52.182;4.474;2023-06-14T00:48:00;11.18;;;3.30;;
72611;SDS011;60655;52.182;4.474;2023-06-14T00:50:01;8.55;;;3.00;;
72611;SDS011;60655;52.182;4.474;2023-06-14T00:52:02;7.70;;;2.78;;
72611;SDS011;60655;52.182;4.474;2023-06-14T00:54:03;8.13;;;3.20;;
72611;SDS011;60655;52.182;4.474;2023-06-14T00:56:05;6.18;;;2.80;;
72611;SDS011;60655;52.182;4.474;2023-06-14T00:58:06;8.93;;;3.40;;
72611;SDS011;60655;52.182;4.474;2023-06-14T01:00:08;8.43;;;3.10;;
72611;SDS011;60655;52.182;4.474;2023-06-14T01:02:10;8.02;;;2.90;;
72611;SDS011;60655;52.182;4.474;2023-06-14T01:04:11;7.43;;;2.38;;
72611;SDS011;60655;52.182;4.474;2023-06-14T01:06:23;7.13;;;2.35;;
72611;SDS011;60655;52.182;4.474;2023-06-14T01:11:22;9.00;;;2.92;;
72611;SDS011;60655;52.182;4.474;2023-06-14T01:13:31;6.78;;;2.67;;
72611;SDS011;60655;52.182;4.474;2023-06-14T01:15:34;7.72;;;2.60;;
72611;SDS011;60655;52.182;4.474;2023-06-14T01:17:35;9.43;;;2.70;;
72611;SDS011;60655;52.182;4.474;2023-06-14T01:19:44;9.23;;;2.50;;
72611;SDS011;60655;52.182;4.474;2023-06-14T01:21:46;6.00;;;2.50;;
72611;SDS011;60655;52.182;4.474;2023-06-14T01:23:51;6.50;;;2.60;;
72611;SDS011;60655;52.182;4.474;2023-06-14T01:25:56;7.85;;;2.65;;
72611;SDS011;60655;52.182;4.474;2023-06-14T01:30:03;10.88;;;2.67;;
72611;SDS011;60655;52.182;4.474;2023-06-14T01:32:06;8.27;;;2.50;;
72611;SDS011;60655;52.182;4.474;2023-06-14T01:34:07;6.63;;;2.38;;
72611;SDS011;60655;52.182;4.474;2023-06-14T01:36:09;9.40;;;2.60;;
72611;SDS011;60655;52.182;4.474;2023-06-14T01:38:10;9.43;;;2.63;;
72611;SDS011;60655;52.182;4.474;2023-06-14T01:40:14;7.57;;;2.63;;
72611;SDS011;60655;52.182;4.474;2023-06-14T01:42:16;7.47;;;2.78;;
72611;SDS011;60655;52.182;4.474;2023-06-14T01:44:18;14.90;;;2.60;;
72611;SDS011;60655;52.182;4.474;2023-06-14T01:46:20;8.02;;;2.70;;
72611;SDS011;60655;52.182;4.474;2023-06-14T01:48:22;7.90;;;2.53;;
72611;SDS011;60655;52.182;4.474;2023-06-14T01:50:23;8.23;;;2.50;;
72611;SDS011;60655;52.182;4.474;2023-06-14T01:52:30;7.43;;;2.60;;
72611;SDS011;60655;52.182;4.474;2023-06-14T01:54:31;7.57;;;2.75;;
72611;SDS011;60655;52.182;4.474;2023-06-14T01:56:32;9.05;;;2.60;;
72611;SDS011;60655;52.182;4.474;2023-06-14T01:58:33;8.32;;;2.63;;
72611;SDS011;60655;52.182;4.474;2023-06-14T02:00:34;9.93;;;2.83;;
72611;SDS011;60655;52.182;4.474;2023-06-14T02:02:35;9.05;;;2.92;;
72611;SDS011;60655;52.182;4.474;2023-06-14T02:04:36;8.80;;;2.53;;
72611;SDS011;60655;52.182;4.474;2023-06-14T02:06:37;6.53;;;2.35;;
72611;SDS011;60655;52.182;4.474;2023-06-14T02:08:38;5.18;;;2.40;;
72611;SDS011;60655;52.182;4.474;2023-06-14T02:10:39;12.77;;;2.80;;
72611;SDS011;60655;52.182;4.474;2023-06-14T02:12:40;5.85;;;2.33;;
72611;SDS011;60655;52.182;4.474;2023-06-14T02:14:41;6.05;;;2.40;;
72611;SDS011;60655;52.182;4.474;2023-06-14T02:16:42;7.22;;;2.40;;
72611;SDS011;60655;52.182;4.474;2023-06-14T02:18:49;6.05;;;2.40;;
72611;SDS011;60655;52.182;4.474;2023-06-14T02:20:51;7.20;;;2.38;;
72611;SDS011;60655;52.182;4.474;2023-06-14T02:22:52;7.55;;;2.78;;
72611;SDS011;60655;52.182;4.474;2023-06-14T02:24:53;7.18;;;2.30;;
72611;SDS011;60655;52.182;4.474;2023-06-14T02:26:54;9.10;;;2.42;;
72611;SDS011;60655;52.182;4.474;2023-06-14T02:28:55;7.13;;;2.30;;
72611;SDS011;60655;52.182;4.474;2023-06-14T02:30:56;6.20;;;2.38;;
72611;SDS011;60655;52.182;4.474;2023-06-14T02:32:57;10.18;;;2.47;;
72611;SDS011;60655;52.182;4.474;2023-06-14T02:34:59;6.15;;;2.45;;
72611;SDS011;60655;52.182;4.474;2023-06-14T02:37:00;8.50;;;2.30;;
72611;SDS011;60655;52.182;4.474;2023-06-14T02:39:03;6.35;;;2.40;;
72611;SDS011;60655;52.182;4.474;2023-06-14T02:41:04;8.30;;;2.38;;
72611;SDS011;60655;52.182;4.474;2023-06-14T02:43:06;14.05;;;2.90;;
72611;SDS011;60655;52.182;4.474;2023-06-14T02:45:07;8.95;;;2.67;;
72611;SDS011;60655;52.182;4.474;2023-06-14T02:47:09;6.93;;;2.40;;
72611;SDS011;60655;52.182;4.474;2023-06-14T02:49:10;9.80;;;2.40;;
72611;SDS011;60655;52.182;4.474;2023-06-14T02:51:12;7.43;;;2.35;;
72611;SDS011;60655;52.182;4.474;2023-06-14T02:53:13;6.22;;;2.28;;
72611;SDS011;60655;52.182;4.474;2023-06-14T02:55:14;9.10;;;2.63;;
72611;SDS011;60655;52.182;4.474;2023-06-14T02:57:15;8.07;;;2.70;;
72611;SDS011;60655;52.182;4.474;2023-06-14T02:59:16;12.15;;;2.50;;
72611;SDS011;60655;52.182;4.474;2023-06-14T03:01:17;6.45;;;2.45;;
72611;SDS011;60655;52.182;4.474;2023-06-14T03:03:18;7.07;;;2.60;;
72611;SDS011;60655;52.182;4.474;2023-06-14T03:05:20;7.55;;;2.70;;
72611;SDS011;60655;52.182;4.474;2023-06-14T03:07:21;6.13;;;2.67;;
72611;SDS011;60655;52.182;4.474;2023-06-14T03:09:35;6.65;;;2.40;;
72611;SDS011;60655;52.182;4.474;2023-06-14T03:11:38;11.80;;;2.63;;
72611;SDS011;60655;52.182;4.474;2023-06-14T03:13:39;7.68;;;2.53;;
72611;SDS011;60655;52.182;4.474;2023-06-14T03:15:41;9.18;;;2.75;;
72611;SDS011;60655;52.182;4.474;2023-06-14T03:17:43;17.52;;;3.60;;
72611;SDS011;60655;52.182;4.474;2023-06-14T03:19:45;9.02;;;2.38;;
72611;SDS011;60655;52.182;4.474;2023-06-14T03:21:46;7.47;;;2.70;;
72611;SDS011;60655;52.182;4.474;2023-06-14T03:23:48;9.13;;;2.70;;
72611;SDS011;60655;52.182;4.474;2023-06-14T03:25:49;7.50;;;2.53;;
72611;SDS011;60655;52.182;4.474;2023-06-14T03:27:51;6.40;;;2.78;;
72611;SDS011;60655;52.182;4.474;2023-06-14T03:29:52;6.65;;;2.38;;
72611;SDS011;60655;52.182;4.474;2023-06-14T03:31:57;8.07;;;2.40;;
72611;SDS011;60655;52.182;4.474;2023-06-14T03:33:59;10.00;;;2.83;;
72611;SDS011;60655;52.182;4.474;2023-06-14T03:36:01;7.03;;;2.80;;
72611;SDS011;60655;52.182;4.474;2023-06-14T03:38:03;6.60;;;2.42;;
72611;SDS011;60655;52.182;4.474;2023-06-14T03:40:04;9.52;;;2.70;;
72611;SDS011;60655;52.182;4.474;2023-06-14T03:42:07;6.25;;;2.67;;
72611;SDS011;60655;52.182;4.474;2023-06-14T03:44:08;9.38;;;2.67;;
72611;SDS011;60655;52.182;4.474;2023-06-14T03:46:09;8.85;;;2.60;;
72611;SDS011;60655;52.182;4.474;2023-06-14T03:48:10;7.68;;;2.50;;
72611;SDS011;60655;52.182;4.474;2023-06-14T03:50:11;6.35;;;2.20;;
72611;SDS011;60655;52.182;4.474;2023-06-14T03:52:12;7.28;;;2.70;;
72611;SDS011;60655;52.182;4.474;2023-06-14T03:54:18;6.03;;;2.60;;
72611;SDS011;60655;52.182;4.474;2023-06-14T03:56:19;9.60;;;2.60;;
72611;SDS011;60655;52.182;4.474;2023-06-14T03:58:20;7.20;;;2.55;;
72611;SDS011;60655;52.182;4.474;2023-06-14T04:00:21;9.50;;;2.90;;
72611;SDS011;60655;52.182;4.474;2023-06-14T04:02:22;8.95;;;2.53;;
72611;SDS011;60655;52.182;4.474;2023-06-14T04:04:23;6.60;;;2.67;;
72611;SDS011;60655;52.182;4.474;2023-06-14T04:06:29;5.55;;;2.35;;
72611;SDS011;60655;52.182;4.474;2023-06-14T04:08:33;7.93;;;2.42;;
72611;SDS011;60655;52.182;4.474;2023-06-14T04:10:35;9.18;;;3.00;;
72611;SDS011;60655;52.182;4.474;2023-06-14T04:12:36;8.25;;;2.70;;
72611;SDS011;60655;52.182;4.474;2023-06-14T04:14:37;8.32;;;2.80;;
72611;SDS011;60655;52.182;4.474;2023-06-14T04:16:38;10.10;;;2.40;;
72611;SDS011;60655;52.182;4.474;2023-06-14T04:18:39;5.55;;;2.20;;
72611;SDS011;60655;52.182;4.474;2023-06-14T04:20:40;7.13;;;2.72;;
72611;SDS011;60655;52.182;4.474;2023-06-14T04:22:42;8.57;;;2.83;;
72611;SDS011;60655;52.182;4.474;2023-06-14T04:24:43;6.03;;;2.33;;
72611;SDS011;60655;52.182;4.474;2023-06-14T04:26:45;5.80;;;2.42;;
72611;SDS011;60655;52.182;4.474;2023-06-14T04:28:48;7.70;;;2.50;;
72611;SDS011;60655;52.182;4.474;2023-06-14T04:30:50;5.88;;;2.17;;
72611;SDS011;60655;52.182;4.474;2023-06-14T04:32:51;8.13;;;2.47;;
72611;SDS011;60655;52.182;4.474;2023-06-14T04:34:54;9.27;;;2.53;;
72611;SDS011;60655;52.182;4.474;2023-06-14T04:36:56;4.95;;;2.10;;
72611;SDS011;60655;52.182;4.474;2023-06-14T04:38:59;6.50;;;2.30;;
72611;SDS011;60655;52.182;4.474;2023-06-14T04:41:00;6.78;;;2.25;;
72611;SDS011;60655;52.182;4.474;2023-06-14T04:43:02;9.68;;;2.38;;
72611;SDS011;60655;52.182;4.474;2023-06-14T04:45:07;6.30;;;2.45;;
72611;SDS011;60655;52.182;4.474;2023-06-14T04:47:09;8.52;;;2.63;;
72611;SDS011;60655;52.182;4.474;2023-06-14T04:49:13;10.00;;;2.50;;
72611;SDS011;60655;52.182;4.474;2023-06-14T04:51:18;6.43;;;2.45;;
72611;SDS011;60655;52.182;4.474;2023-06-14T04:53:21;8.95;;;2.70;;
72611;SDS011;60655;52.182;4.474;2023-06-14T04:55:23;6.68;;;2.38;;
72611;SDS011;60655;52.182;4.474;2023-06-14T04:57:25;6.07;;;2.15;;
72611;SDS011;60655;52.182;4.474;2023-06-14T04:59:26;7.35;;;2.42;;
72611;SDS011;60655;52.182;4.474;2023-06-14T05:01:27;9.20;;;2.70;;
72611;SDS011;60655;52.182;4.474;2023-06-14T05:03:28;7.90;;;2.20;;
72611;SDS011;60655;52.182;4.474;2023-06-14T05:05:31;7.50;;;2.60;;
72611;SDS011;60655;52.182;4.474;2023-06-14T05:07:32;8.25;;;2.28;;
72611;SDS011;60655;52.182;4.474;2023-06-14T05:09:34;5.78;;;2.30;;
72611;SDS011;60655;52.182;4.474;2023-06-14T05:11:36;10.45;;;2.70;;
72611;SDS011;60655;52.182;4.474;2023-06-14T05:13:37;8.43;;;2.25;;
72611;SDS011;60655;52.182;4.474;2023-06-14T05:15:37;8.20;;;2.45;;
72611;SDS011;60655;52.182;4.474;2023-06-14T05:17:38;10.05;;;2.40;;
72611;SDS011;60655;52.182;4.474;2023-06-14T05:19:40;6.53;;;2.45;;
72611;SDS011;60655;52.182;4.474;2023-06-14T05:21:41;8.27;;;2.25;;
72611;SDS011;60655;52.182;4.474;2023-06-14T05:23:43;7.05;;;2.40;;
72611;SDS011;60655;52.182;4.474;2023-06-14T05:25:45;6.82;;;2.10;;
72611;SDS011;60655;52.182;4.474;2023-06-14T05:27:47;7.07;;;2.50;;
72611;SDS011;60655;52.182;4.474;2023-06-14T05:29:48;5.72;;;2.28;;
72611;SDS011;60655;52.182;4.474;2023-06-14T05:31:49;6.70;;;2.50;;
72611;SDS011;60655;52.182;4.474;2023-06-14T05:33:50;11.95;;;2.38;;
72611;SDS011;60655;52.182;4.474;2023-06-14T05:35:51;6.05;;;2.13;;
72611;SDS011;60655;52.182;4.474;2023-06-14T05:37:52;6.55;;;2.28;;
72611;SDS011;60655;52.182;4.474;2023-06-14T05:39:54;8.13;;;2.45;;
72611;SDS011;60655;52.182;4.474;2023-06-14T05:41:55;9.95;;;2.50;;
72611;SDS011;60655;52.182;4.474;2023-06-14T05:43:56;8.02;;;2.50;;
72611;SDS011;60655;52.182;4.474;2023-06-14T05:45:57;7.63;;;2.40;;
72611;SDS011;60655;52.182;4.474;2023-06-14T05:47:58;7.15;;;2.30;;
72611;SDS011;60655;52.182;4.474;2023-06-14T05:49:59;11.57;;;2.47;;
72611;SDS011;60655;52.182;4.474;2023-06-14T05:52:00;6.97;;;2.20;;
72611;SDS011;60655;52.182;4.474;2023-06-14T05:54:01;6.63;;;2.33;;
72611;SDS011;60655;52.182;4.474;2023-06-14T05:56:02;7.80;;;2.28;;
72611;SDS011;60655;52.182;4.474;2023-06-14T05:58:03;8.73;;;2.72;;
72611;SDS011;60655;52.182;4.474;2023-06-14T06:00:05;5.85;;;2.15;;
72611;SDS011;60655;52.182;4.474;2023-06-14T06:02:15;11.88;;;2.33;;
72611;SDS011;60655;52.182;4.474;2023-06-14T06:04:16;7.07;;;2.10;;
72611;SDS011;60655;52.182;4.474;2023-06-14T06:06:16;7.45;;;2.47;;
72611;SDS011;60655;52.182;4.474;2023-06-14T06:08:18;6.80;;;2.15;;
72611;SDS011;60655;52.182;4.474;2023-06-14T06:10:19;4.70;;;2.17;;
72611;SDS011;60655;52.182;4.474;2023-06-14T06:12:22;7.45;;;2.50;;
72611;SDS011;60655;52.182;4.474;2023-06-14T06:14:23;9.32;;;2.28;;
72611;SDS011;60655;52.182;4.474;2023-06-14T06:16:27;6.18;;;2.13;;
72611;SDS011;60655;52.182;4.474;2023-06-14T06:18:31;5.05;;;2.20;;
72611;SDS011;60655;52.182;4.474;2023-06-14T06:20:32;6.60;;;2.30;;
72611;SDS011;60655;52.182;4.474;2023-06-14T06:22:34;6.90;;;2.20;;
72611;SDS011;60655;52.182;4.474;2023-06-14T06:24:35;7.18;;;2.03;;
72611;SDS011;60655;52.182;4.474;2023-06-14T06:26:36;8.48;;;2.20;;
72611;SDS011;60655;52.182;4.474;2023-06-14T06:28:37;7.93;;;2.70;;
72611;SDS011;60655;52.182;4.474;2023-06-14T06:30:38;13.02;;;2.55;;
72611;SDS011;60655;52.182;4.474;2023-06-14T06:32:39;7.30;;;2.50;;
72611;SDS011;60655;52.182;4.474;2023-06-14T06:34:40;6.57;;;2.45;;
72611;SDS011;60655;52.182;4.474;2023-06-14T06:36:41;8.73;;;2.40;;
72611;SDS011;60655;52.182;4.474;2023-06-14T06:38:45;8.52;;;2.47;;
72611;SDS011;60655;52.182;4.474;2023-06-14T06:40:46;10.15;;;2.47;;
72611;SDS011;60655;52.182;4.474;2023-06-14T06:42:47;8.60;;;2.60;;
72611;SDS011;60655;52.182;4.474;2023-06-14T06:44:48;7.22;;;2.70;;
72611;SDS011;60655;52.182;4.474;2023-06-14T06:46:49;8.38;;;2.53;;
72611;SDS011;60655;52.182;4.474;2023-06-14T06:48:50;9.55;;;2.38;;
72611;SDS011;60655;52.182;4.474;2023-06-14T06:50:51;7.40;;;2.30;;
72611;SDS011;60655;52.182;4.474;2023-06-14T06:52:52;6.63;;;2.40;;
72611;SDS011;60655;52.182;4.474;2023-06-14T06:54:54;10.18;;;2.45;;
72611;SDS011;60655;52.182;4.474;2023-06-14T06:56:56;8.43;;;2.50;;
72611;SDS011;60655;52.182;4.474;2023-06-14T06:58:57;7.88;;;2.40;;
72611;SDS011;60655;52.182;4.474;2023-06-14T07:00:58;6.13;;;2.35;;
72611;SDS011;60655;52.182;4.474;2023-06-14T07:02:59;7.50;;;2.35;;
72611;SDS011;60655;52.182;4.474;2023-06-14T07:05:00;6.53;;;2.45;;
72611;SDS011;60655;52.182;4.474;2023-06-14T07:07:01;9.43;;;2.75;;
72611;SDS011;60655;52.182;4.474;2023-06-14T07:09:02;6.70;;;2.47;;
72611;SDS011;60655;52.182;4.474;2023-06-14T07:11:05;7.35;;;2.65;;
72611;SDS011;60655;52.182;4.474;2023-06-14T07:13:07;11.45;;;2.72;;
72611;SDS011;60655;52.182;4.474;2023-06-14T07:15:08;7.60;;;2.60;;
72611;SDS011;60655;52.182;4.474;2023-06-14T07:17:10;9.10;;;2.80;;
72611;SDS011;60655;52.182;4.474;2023-06-14T07:19:11;11.85;;;2.63;;
72611;SDS011;60655;52.182;4.474;2023-06-14T07:21:12;13.05;;;2.53;;
72611;SDS011;60655;52.182;4.474;2023-06-14T07:23:13;6.88;;;2.65;;
72611;SDS011;60655;52.182;4.474;2023-06-14T07:25:14;8.50;;;2.72;;
72611;SDS011;60655;52.182;4.474;2023-06-14T07:27:15;6.63;;;2.60;;
72611;SDS011;60655;52.182;4.474;2023-06-14T07:29:16;7.47;;;2.35;;
72611;SDS011;60655;52.182;4.474;2023-06-14T07:31:17;7.57;;;2.88;;
72611;SDS011;60655;52.182;4.474;2023-06-14T07:33:19;7.60;;;2.50;;
72611;SDS011;60655;52.182;4.474;2023-06-14T07:35:20;7.22;;;2.90;;
72611;SDS011;60655;52.182;4.474;2023-06-14T07:37:21;7.18;;;2.58;;
72611;SDS011;60655;52.182;4.474;2023-06-14T07:39:22;9.30;;;2.63;;
72611;SDS011;60655;52.182;4.474;2023-06-14T07:41:24;6.15;;;2.97;;
72611;SDS011;60655;52.182;4.474;2023-06-14T07:43:25;8.52;;;2.70;;
72611;SDS011;60655;52.182;4.474;2023-06-14T07:45:26;12.55;;;2.90;;
72611;SDS011;60655;52.182;4.474;2023-06-14T07:47:27;7.72;;;2.70;;
72611;SDS011;60655;52.182;4.474;2023-06-14T07:49:28;7.28;;;2.50;;
72611;SDS011;60655;52.182;4.474;2023-06-14T07:51:29;7.45;;;2.95;;
72611;SDS011;60655;52.182;4.474;2023-06-14T07:53:30;6.82;;;2.70;;
72611;SDS011;60655;52.182;4.474;2023-06-14T07:55:31;7.57;;;2.95;;
72611;SDS011;60655;52.182;4.474;2023-06-14T07:57:33;11.48;;;3.15;;
72611;SDS011;60655;52.182;4.474;2023-06-14T07:59:34;6.57;;;2.80;;
72611;SDS011;60655;52.182;4.474;2023-06-14T08:01:35;6.75;;;2.72;;
72611;SDS011;60655;52.182;4.474;2023-06-14T08:03:36;12.13;;;2.90;;
72611;SDS011;60655;52.182;4.474;2023-06-14T08:05:37;12.35;;;3.65;;
72611;SDS011;60655;52.182;4.474;2023-06-14T08:07:41;16.25;;;2.95;;
72611;SDS011;60655;52.182;4.474;2023-06-14T08:09:43;7.65;;;3.15;;
72611;SDS011;60655;52.182;4.474;2023-06-14T08:11:44;9.68;;;3.10;;
72611;SDS011;60655;52.182;4.474;2023-06-14T08:13:45;7.18;;;2.97;;
72611;SDS011;60655;52.182;4.474;2023-06-14T08:15:46;12.50;;;2.97;;
72611;SDS011;60655;52.182;4.474;2023-06-14T08:17:47;7.63;;;2.83;;
72611;SDS011;60655;52.182;4.474;2023-06-14T08:19:49;14.27;;;3.40;;
72611;SDS011;60655;52.182;4.474;2023-06-14T08:21:50;10.50;;;3.38;;
72611;SDS011;60655;52.182;4.474;2023-06-14T08:23:51;11.48;;;3.40;;
72611;SDS011;60655;52.182;4.474;2023-06-14T08:25:53;9.18;;;3.10;;
72611;SDS011;60655;52.182;4.474;2023-06-14T08:27:54;6.38;;;2.33;;
72611;SDS011;60655;52.182;4.474;2023-06-14T08:29:55;7.63;;;3.13;;
72611;SDS011;60655;52.182;4.474;2023-06-14T08:31:56;6.63;;;2.92;;
72611;SDS011;60655;52.182;4.474;2023-06-14T08:33:58;12.90;;;3.00;;
72611;SDS011;60655;52.182;4.474;2023-06-14T08:35:59;9.65;;;3.03;;
72611;SDS011;60655;52.182;4.474;2023-06-14T08:38:00;6.35;;;2.90;;
72611;SDS011;60655;52.182;4.474;2023-06-14T08:40:01;9.48;;;3.45;;
72611;SDS011;60655;52.182;4.474;2023-06-14T08:42:05;8.13;;;3.38;;
72611;SDS011;60655;52.182;4.474;2023-06-14T08:44:08;9.95;;;3.33;;
72611;SDS011;60655;52.182;4.474;2023-06-14T08:46:09;11.27;;;3.65;;
72611;SDS011;60655;52.182;4.474;2023-06-14T08:48:12;7.03;;;3.05;;
72611;SDS011;60655;52.182;4.474;2023-06-14T08:50:19;9.98;;;3.50;;
72611;SDS011;60655;52.182;4.474;2023-06-14T08:52:22;11.10;;;3.53;;
72611;SDS011;60655;52.182;4.474;2023-06-14T08:54:30;8.52;;;3.55;;
72611;SDS011;60655;52.182;4.474;2023-06-14T08:56:35;9.40;;;3.70;;
72611;SDS011;60655;52.182;4.474;2023-06-14T08:58:44;9.15;;;3.38;;
72611;SDS011;60655;52.182;4.474;2023-06-14T09:00:48;12.52;;;3.83;;
72611;SDS011;60655;52.182;4.474;2023-06-14T09:02:50;7.78;;;3.13;;
72611;SDS011;60655;52.182;4.474;2023-06-14T09:04:57;10.20;;;3.30;;
72611;SDS011;60655;52.182;4.474;2023-06-14T09:07:00;8.38;;;3.45;;
72611;SDS011;60655;52.182;4.474;2023-06-14T09:09:01;16.88;;;3.60;;
72611;SDS011;60655;52.182;4.474;2023-06-14T09:11:04;6.63;;;2.97;;
72611;SDS011;60655;52.182;4.474;2023-06-14T09:13:06;8.50;;;2.92;;
72611;SDS011;60655;52.182;4.474;2023-06-14T09:15:07;9.93;;;3.53;;
72611;SDS011;60655;52.182;4.474;2023-06-14T09:17:12;8.50;;;3.03;;
72611;SDS011;60655;52.182;4.474;2023-06-14T09:19:20;7.95;;;3.28;;
72611;SDS011;60655;52.182;4.474;2023-06-14T09:21:25;8.75;;;3.20;;
72611;SDS011;60655;52.182;4.474;2023-06-14T09:23:26;10.63;;;3.17;;
72611;SDS011;60655;52.182;4.474;2023-06-14T09:25:27;8.20;;;2.80;;
72611;SDS011;60655;52.182;4.474;2023-06-14T09:27:28;7.85;;;3.10;;
72611;SDS011;60655;52.182;4.474;2023-06-14T09:29:30;12.43;;;2.72;;
72611;SDS011;60655;52.182;4.474;2023-06-14T09:31:32;6.82;;;3.13;;
72611;SDS011;60655;52.182;4.474;2023-06-14T09:33:33;12.18;;;3.30;;
72611;SDS011;60655;52.182;4.474;2023-06-14T09:35:35;8.07;;;3.20;;
72611;SDS011;60655;52.182;4.474;2023-06-14T09:37:36;7.57;;;2.90;;
72611;SDS011;60655;52.182;4.474;2023-06-14T09:39:49;6.97;;;2.95;;
72611;SDS011;60655;52.182;4.474;2023-06-14T09:41:51;10.88;;;2.53;;
72611;SDS011;60655;52.182;4.474;2023-06-14T09:43:52;7.57;;;2.47;;
72611;SDS011;60655;52.182;4.474;2023-06-14T09:45:55;5.45;;;2.70;;
72611;SDS011;60655;52.182;4.474;2023-06-14T09:47:56;6.30;;;2.63;;
72611;SDS011;60655;52.182;4.474;2023-06-14T09:49:58;7.88;;;2.85;;
72611;SDS011;60655;52.182;4.474;2023-06-14T09:52:00;8.43;;;2.45;;
72611;SDS011;60655;52.182;4.474;2023-06-14T09:54:03;10.18;;;2.83;;
72611;SDS011;60655;52.182;4.474;2023-06-14T09:56:07;11.35;;;2.60;;
72611;SDS011;60655;52.182;4.474;2023-06-14T09:58:10;14.60;;;2.70;;
72611;SDS011;60655;52.182;4.474;2023-06-14T10:00:13;8.02;;;2.38;;
72611;SDS011;60655;52.182;4.474;2023-06-14T10:02:23;7.95;;;2.50;;
72611;SDS011;60655;52.182;4.474;2023-06-14T10:04:27;6.25;;;2.50;;
72611;SDS011;60655;52.182;4.474;2023-06-14T10:06:31;8.40;;;2.70;;
72611;SDS011;60655;52.182;4.474;2023-06-14T10:08:35;7.47;;;2.55;;
72611;SDS011;60655;52.182;4.474;2023-06-14T10:10:38;7.03;;;2.42;;
72611;SDS011;60655;52.182;4.474;2023-06-14T10:12:41;5.13;;;2.30;;
72611;SDS011;60655;52.182;4.474;2023-06-14T10:14:42;8.50;;;2.67;;
72611;SDS011;60655;52.182;4.474;2023-06-14T10:23:40;9.65;;;2.90;;
72611;SDS011;60655;52.182;4.474;2023-06-14T10:25:43;9.20;;;2.30;;
72611;SDS011;60655;52.182;4.474;2023-06-14T10:27:44;8.88;;;2.78;;
72611;SDS011;60655;52.182;4.474;2023-06-14T10:31:57;6.70;;;2.30;;
72611;SDS011;60655;52.182;4.474;2023-06-14T10:33:59;5.78;;;2.58;;
72611;SDS011;60655;52.182;4.474;2023-06-14T10:36:09;7.93;;;2.50;;
72611;SDS011;60655;52.182;4.474;2023-06-14T10:38:29;4.97;;;2.40;;
72611;SDS011;60655;52.182;4.474;2023-06-14T10:40:33;7.18;;;2.10;;
72611;SDS011;60655;52.182;4.474;2023-06-14T10:42:34;5.18;;;2.05;;
72611;SDS011;60655;52.182;4.474;2023-06-14T10:46:48;7.97;;;2.95;;
72611;SDS011;60655;52.182;4.474;2023-06-14T10:48:56;4.38;;;2.10;;
72611;SDS011;60655;52.182;4.474;2023-06-14T10:51:00;6.15;;;2.13;;
72611;SDS011;60655;52.182;4.474;2023-06-14T10:53:05;5.55;;;1.98;;
72611;SDS011;60655;52.182;4.474;2023-06-14T10:55:22;4.00;;;1.80;;
72611;SDS011;60655;52.182;4.474;2023-06-14T10:57:25;5.45;;;1.85;;
72611;SDS011;60655;52.182;4.474;2023-06-14T10:59:25;4.85;;;1.90;;
72611;SDS011;60655;52.182;4.474;2023-06-14T11:01:36;5.43;;;2.00;;
72611;SDS011;60655;52.182;4.474;2023-06-14T11:05:54;3.85;;;1.73;;
72611;SDS011;60655;52.182;4.474;2023-06-14T11:10:20;7.57;;;2.10;;
72611;SDS011;60655;52.182;4.474;2023-06-14T11:12:49;5.07;;;2.28;;
72611;SDS011;60655;52.182;4.474;2023-06-14T11:14:55;4.38;;;1.90;;
72611;SDS011;60655;52.182;4.474;2023-06-14T11:16:56;11.52;;;2.50;;
72611;SDS011;60655;52.182;4.474;2023-06-14T11:18:57;4.22;;;1.90;;
72611;SDS011;60655;52.182;4.474;2023-06-14T11:20:58;4.38;;;1.77;;
72611;SDS011;60655;52.182;4.474;2023-06-14T11:22:59;6.75;;;1.98;;
72611;SDS011;60655;52.182;4.474;2023-06-14T11:25:01;7.03;;;2.10;;
72611;SDS011;60655;52.182;4.474;2023-06-14T11:27:03;8.30;;;2.10;;
72611;SDS011;60655;52.182;4.474;2023-06-14T11:29:04;6.22;;;1.95;;
72611;SDS011;60655;52.182;4.474;2023-06-14T11:31:06;5.50;;;1.77;;
72611;SDS011;60655;52.182;4.474;2023-06-14T11:33:09;8.07;;;2.15;;
72611;SDS011;60655;52.182;4.474;2023-06-14T11:35:11;4.63;;;1.88;;
72611;SDS011;60655;52.182;4.474;2023-06-14T11:37:13;6.05;;;1.85;;
72611;SDS011;60655;52.182;4.474;2023-06-14T11:39:14;5.07;;;1.90;;
72611;SDS011;60655;52.182;4.474;2023-06-14T11:41:15;4.95;;;1.85;;
72611;SDS011;60655;52.182;4.474;2023-06-14T11:43:16;5.22;;;1.95;;
72611;SDS011;60655;52.182;4.474;2023-06-14T11:45:18;4.47;;;2.10;;
72611;SDS011;60655;52.182;4.474;2023-06-14T11:47:19;5.30;;;1.88;;
72611;SDS011;60655;52.182;4.474;2023-06-14T11:49:20;7.35;;;1.98;;
72611;SDS011;60655;52.182;4.474;2023-06-14T11:51:21;4.50;;;2.00;;
72611;SDS011;60655;52.182;4.474;2023-06-14T11:53:22;5.60;;;1.73;;
72611;SDS011;60655;52.182;4.474;2023-06-14T11:55:23;4.57;;;1.48;;
72611;SDS011;60655;52.182;4.474;2023-06-14T11:57:25;4.65;;;1.75;;
72611;SDS011;60655;52.182;4.474;2023-06-14T11:59:26;3.90;;;1.60;;
72611;SDS011;60655;52.182;4.474;2023-06-14T12:01:29;4.85;;;1.67;;
72611;SDS011;60655;52.182;4.474;2023-06-14T12:03:31;7.30;;;2.35;;
72611;SDS011;60655;52.182;4.474;2023-06-14T12:05:32;8.10;;;2.80;;
72611;SDS011;60655;52.182;4.474;2023-06-14T12:07:34;9.02;;;2.00;;
72611;SDS011;60655;52.182;4.474;2023-06-14T12:09:37;6.82;;;2.10;;
72611;SDS011;60655;52.182;4.474;2023-06-14T12:11:38;4.38;;;1.70;;
72611;SDS011;60655;52.182;4.474;2023-06-14T12:13:39;4.00;;;1.75;;
72611;SDS011;60655;52.182;4.474;2023-06-14T12:15:41;4.15;;;1.60;;
72611;SDS011;60655;52.182;4.474;2023-06-14T12:17:42;4.65;;;1.73;;
72611;SDS011;60655;52.182;4.474;2023-06-14T12:19:44;5.53;;;1.83;;
72611;SDS011;60655;52.182;4.474;2023-06-14T12:21:47;6.07;;;1.75;;
72611;SDS011;60655;52.182;4.474;2023-06-14T12:23:49;4.97;;;1.88;;
72611;SDS011;60655;52.182;4.474;2023-06-14T12:25:51;5.57;;;2.10;;
72611;SDS011;60655;52.182;4.474;2023-06-14T12:27:55;6.00;;;2.08;;
72611;SDS011;60655;52.182;4.474;2023-06-14T12:30:02;6.35;;;1.80;;
72611;SDS011;60655;52.182;4.474;2023-06-14T12:32:04;7.82;;;1.90;;
72611;SDS011;60655;52.182;4.474;2023-06-14T12:34:05;5.13;;;2.05;;
72611;SDS011;60655;52.182;4.474;2023-06-14T12:36:07;9.07;;;3.97;;